Time;durP1;ratioP1;P1;durP2;ratioP2;P2;SDS_P1;SDS_P2;PMS_P1;PMS_P2;Temp;Humidity;BMP_temperature;BMP_pressure;BME280_temperature;BME280_humidity;BME280_pressure;Samples;Min_cycle;Max_cycle;Signal;HPM_P1;HPM_P2
2022/03/22 00:01:24;;;;;;;3.83;2.90;;;;;;;;;;5091980;28;20036;-44
2022/03/22 00:03:50;;;;;;;3.67;2.55;;;;;;;;;;5092007;28;20024;-53
2022/03/22 00:06:18;;;;;;;3.58;2.83;;;;;;;;;;5092095;28;20031;-44
2022/03/22 00:08:44;;;;;;;4.30;2.92;;;;;;;;;;5074697;28;20054;-44
2022/03/22 00:11:11;;;;;;;3.97;2.85;;;;;;;;;;5070998;28;20032;-44
2022/03/22 00:13:37;;;;;;;4.10;2.60;;;;;;;;;;5071941;28;20024;-44
2022/03/22 00:16:03;;;;;;;3.42;2.80;;;;;;;;;;5070738;28;20543;-44
2022/03/22 00:18:29;;;;;;;4.07;2.78;;;;;;;;;;5086796;28;20031;-44
2022/03/22 00:20:56;;;;;;;3.58;2.85;;;;;;;;;;5091124;28;20493;-44
2022/03/22 00:23:23;;;;;;;4.35;3.00;;;;;;;;;;5091703;28;20431;-45
2022/03/22 00:25:49;;;;;;;4.28;2.55;;;;;;;;;;5091947;28;20012;-45
2022/03/22 00:28:15;;;;;;;5.93;3.22;;;;;;;;;;5090736;28;20038;-44
2022/03/22 00:30:41;;;;;;;3.78;2.83;;;;;;;;;;5091543;28;20028;-46
2022/03/22 00:33:08;;;;;;;3.75;2.60;;;;;;;;;;5090718;28;20381;-44
2022/03/22 00:35:36;;;;;;;3.05;2.58;;;;;;;;;;5091811;28;20091;-46
2022/03/22 00:38:03;;;;;;;4.28;3.05;;;;;;;;;;5089282;28;20020;-44
2022/03/22 00:40:29;;;;;;;3.83;2.53;;;;;;;;;;5091539;28;20052;-44
2022/03/22 00:42:56;;;;;;;4.40;2.80;;;;;;;;;;5081519;28;20082;-50
2022/03/22 00:45:23;;;;;;;3.42;2.60;;;;;;;;;;5088460;28;20028;-45
2022/03/22 00:47:51;;;;;;;3.33;2.60;;;;;;;;;;5095435;28;20544;-44
2022/03/22 00:50:19;;;;;;;3.03;2.40;;;;;;;;;;5095273;28;20035;-43
2022/03/22 00:52:45;;;;;;;3.72;2.75;;;;;;;;;;5095602;28;20457;-44
2022/03/22 00:55:12;;;;;;;3.83;2.90;;;;;;;;;;5094647;28;20031;-43
2022/03/22 00:57:39;;;;;;;3.63;2.50;;;;;;;;;;5075814;28;20074;-44
2022/03/22 01:00:07;;;;;;;3.78;2.85;;;;;;;;;;5095455;28;20054;-45
2022/03/22 01:02:34;;;;;;;4.63;2.88;;;;;;;;;;5096057;28;20035;-44
2022/03/22 01:05:01;;;;;;;4.50;3.13;;;;;;;;;;5091792;28;20032;-46
2022/03/22 01:07:27;;;;;;;4.43;2.80;;;;;;;;;;5075609;28;20024;-46
2022/03/22 01:09:53;;;;;;;4.15;2.50;;;;;;;;;;5076231;28;20107;-56
2022/03/22 01:12:19;;;;;;;3.65;2.53;;;;;;;;;;5095015;28;20025;-44
2022/03/22 01:14:45;;;;;;;4.45;3.25;;;;;;;;;;5095181;28;20020;-45
2022/03/22 01:17:11;;;;;;;4.00;3.00;;;;;;;;;;5093998;28;20063;-45
2022/03/22 01:19:39;;;;;;;4.28;2.50;;;;;;;;;;5095152;28;20069;-47
2022/03/22 01:22:05;;;;;;;4.13;2.88;;;;;;;;;;5094310;28;20051;-47
2022/03/22 01:24:32;;;;;;;3.80;3.20;;;;;;;;;;5094728;28;20063;-44
2022/03/22 01:26:58;;;;;;;3.88;2.22;;;;;;;;;;5094117;28;20016;-45
2022/03/22 01:29:24;;;;;;;3.80;2.88;;;;;;;;;;5094641;28;20016;-46
2022/03/22 01:31:50;;;;;;;3.58;2.47;;;;;;;;;;5095009;28;20383;-44
2022/03/22 01:34:16;;;;;;;6.28;3.17;;;;;;;;;;5082108;28;20594;-47
2022/03/22 01:36:42;;;;;;;4.18;2.70;;;;;;;;;;5074372;28;20111;-44
2022/03/22 01:39:08;;;;;;;4.65;3.25;;;;;;;;;;5073689;28;20123;-47
2022/03/22 01:41:35;;;;;;;3.95;2.80;;;;;;;;;;5074301;28;20104;-44
2022/03/22 01:44:01;;;;;;;5.35;3.17;;;;;;;;;;5078021;28;20024;-45
2022/03/22 01:46:27;;;;;;;4.15;2.70;;;;;;;;;;5076743;28;20039;-48
2022/03/22 01:48:54;;;;;;;5.80;3.35;;;;;;;;;;5094439;28;20021;-55
2022/03/22 01:51:21;;;;;;;3.55;2.70;;;;;;;;;;5094060;28;20487;-44
2022/03/22 01:53:47;;;;;;;2.83;2.22;;;;;;;;;;5094139;28;20024;-44
2022/03/22 01:56:13;;;;;;;4.15;3.05;;;;;;;;;;5093549;28;20020;-44
2022/03/22 01:58:40;;;;;;;3.03;2.38;;;;;;;;;;5083565;28;20051;-44
2022/03/22 02:06:36;;;;;;;3.47;2.45;;;;;;;;;;5093837;28;20031;-47
2022/03/22 02:09:03;;;;;;;4.10;3.08;;;;;;;;;;5092474;28;20055;-44
2022/03/22 02:11:29;;;;;;;3.40;2.33;;;;;;;;;;5093830;28;20024;-44
2022/03/22 02:13:56;;;;;;;4.10;2.90;;;;;;;;;;5093378;28;20137;-55
2022/03/22 02:16:22;;;;;;;3.88;3.03;;;;;;;;;;5093571;28;20052;-45
2022/03/22 02:18:50;;;;;;;3.60;2.80;;;;;;;;;;5093627;28;20031;-44
2022/03/22 02:21:16;;;;;;;3.95;2.83;;;;;;;;;;5093224;28;20035;-45
2022/03/22 02:23:52;;;;;;;3.13;2.00;;;;;;;;;;5085922;28;20107;-50
2022/03/22 02:26:18;;;;;;;5.90;2.72;;;;;;;;;;5093018;28;20154;-44
2022/03/22 02:28:45;;;;;;;4.55;2.72;;;;;;;;;;5093747;28;20034;-44
2022/03/22 02:31:12;;;;;;;3.78;3.17;;;;;;;;;;5093205;28;20035;-43
2022/03/22 02:33:42;;;;;;;3.85;3.15;;;;;;;;;;5093508;28;20024;-44
2022/03/22 02:36:08;;;;;;;4.03;2.80;;;;;;;;;;5092571;28;20490;-45
2022/03/22 02:38:34;;;;;;;4.07;2.97;;;;;;;;;;5093589;28;20089;-44
2022/03/22 02:41:01;;;;;;;3.67;2.88;;;;;;;;;;5092627;28;20115;-44
2022/03/22 02:43:27;;;;;;;4.30;3.05;;;;;;;;;;5079175;28;20074;-44
2022/03/22 02:45:53;;;;;;;4.57;3.13;;;;;;;;;;5075649;28;20543;-44
2022/03/22 02:48:19;;;;;;;4.55;3.20;;;;;;;;;;5072669;28;20037;-44
2022/03/22 02:50:46;;;;;;;3.47;2.63;;;;;;;;;;5075146;28;20078;-44
2022/03/22 02:53:12;;;;;;;4.63;3.20;;;;;;;;;;5092618;28;20111;-43
2022/03/22 02:55:38;;;;;;;4.43;3.40;;;;;;;;;;5093585;28;20024;-44
2022/03/22 02:58:04;;;;;;;3.92;2.90;;;;;;;;;;5092463;28;20028;-45
2022/03/22 03:00:30;;;;;;;4.07;3.20;;;;;;;;;;5092567;28;20466;-47
2022/03/22 03:02:56;;;;;;;4.28;2.88;;;;;;;;;;5072642;28;20033;-55
2022/03/22 03:05:22;;;;;;;3.72;2.92;;;;;;;;;;5072797;28;20102;-45
2022/03/22 03:07:49;;;;;;;4.20;3.08;;;;;;;;;;5072489;28;20024;-44
2022/03/22 03:10:15;;;;;;;4.28;3.15;;;;;;;;;;5079688;28;20096;-43
2022/03/22 03:12:41;;;;;;;3.78;2.80;;;;;;;;;;5092855;28;20031;-47
2022/03/22 03:15:11;;;;;;;3.25;2.58;;;;;;;;;;5091748;28;20473;-44
2022/03/22 03:17:37;;;;;;;4.82;3.20;;;;;;;;;;5093054;28;20053;-44
2022/03/22 03:20:04;;;;;;;4.15;3.00;;;;;;;;;;5074366;28;20566;-44
2022/03/22 03:22:30;;;;;;;4.43;2.85;;;;;;;;;;5077615;28;20043;-45
2022/03/22 03:24:57;;;;;;;4.30;3.28;;;;;;;;;;5080373;28;20024;-46
2022/03/22 03:27:23;;;;;;;5.63;2.88;;;;;;;;;;5079529;28;20055;-44
2022/03/22 03:29:49;;;;;;;4.85;3.40;;;;;;;;;;5078476;28;20020;-44
2022/03/22 03:32:16;;;;;;;3.30;2.63;;;;;;;;;;5079483;28;20109;-51
2022/03/22 03:34:42;;;;;;;3.92;3.20;;;;;;;;;;5079681;28;20013;-46
2022/03/22 03:37:08;;;;;;;5.22;3.10;;;;;;;;;;5078266;28;20028;-50
2022/03/22 03:39:34;;;;;;;3.55;2.78;;;;;;;;;;5082106;28;20086;-44
2022/03/22 03:42:02;;;;;;;3.25;2.72;;;;;;;;;;5079845;28;20021;-55
2022/03/22 03:47:14;;;;;;;4.90;2.83;;;;;;;;;;5078619;28;20042;-46
2022/03/22 03:49:44;;;;;;;3.33;2.67;;;;;;;;;;5085896;28;20039;-45
2022/03/22 03:52:13;;;;;;;3.30;2.40;;;;;;;;;;5091475;28;20024;-47
2022/03/22 03:54:39;;;;;;;4.22;2.92;;;;;;;;;;5091868;28;20020;-44
2022/03/22 03:57:06;;;;;;;2.53;2.22;;;;;;;;;;5091412;28;20039;-45
2022/03/22 03:59:32;;;;;;;4.38;3.00;;;;;;;;;;5092242;28;20016;-45
2022/03/22 04:01:58;;;;;;;4.45;3.20;;;;;;;;;;5072924;28;20036;-54
2022/03/22 04:04:24;;;;;;;3.97;3.38;;;;;;;;;;5072402;28;20024;-44
2022/03/22 04:06:50;;;;;;;4.68;3.00;;;;;;;;;;5092114;28;20488;-44
2022/03/22 04:09:16;;;;;;;3.65;2.53;;;;;;;;;;5091200;28;20076;-44
2022/03/22 04:11:43;;;;;;;3.42;2.53;;;;;;;;;;5077767;28;20060;-47
2022/03/22 04:14:09;;;;;;;4.97;2.72;;;;;;;;;;5070854;28;20032;-44
2022/03/22 04:16:36;;;;;;;3.92;2.90;;;;;;;;;;5090227;28;20509;-46
2022/03/22 04:19:03;;;;;;;4.93;3.10;;;;;;;;;;5090921;28;20504;-44
2022/03/22 04:21:29;;;;;;;4.20;2.83;;;;;;;;;;5078911;28;20527;-44
2022/03/22 04:23:55;;;;;;;3.75;2.97;;;;;;;;;;5071845;28;20064;-45
2022/03/22 04:26:21;;;;;;;4.20;2.85;;;;;;;;;;5087053;28;20791;-45
2022/03/22 04:34:28;;;;;;;4.25;3.00;;;;;;;;;;5071690;28;20028;-44
2022/03/22 04:36:57;;;;;;;3.63;2.70;;;;;;;;;;5089820;28;20427;-44
2022/03/22 04:39:26;;;;;;;3.85;2.60;;;;;;;;;;5075636;28;20040;-47
2022/03/22 04:41:53;;;;;;;3.10;2.63;;;;;;;;;;5088089;28;20032;-44
2022/03/22 04:44:19;;;;;;;4.45;2.78;;;;;;;;;;5083764;28;20032;-44
2022/03/22 04:46:45;;;;;;;3.90;2.75;;;;;;;;;;5088075;28;20086;-44
2022/03/22 04:49:11;;;;;;;5.70;3.67;;;;;;;;;;5090988;28;20020;-44
2022/03/22 04:57:06;;;;;;;3.05;2.67;;;;;;;;;;5090177;28;20507;-45
2022/03/22 04:59:32;;;;;;;4.55;2.90;;;;;;;;;;5091165;28;20027;-46
2022/03/22 05:01:59;;;;;;;3.83;3.00;;;;;;;;;;5091223;28;20385;-51
2022/03/22 05:04:25;;;;;;;4.95;3.22;;;;;;;;;;5082535;28;20050;-45
2022/03/22 05:06:52;;;;;;;3.05;2.67;;;;;;;;;;5088016;28;20085;-46
2022/03/22 05:09:18;;;;;;;3.95;3.15;;;;;;;;;;5090812;28;20025;-47
2022/03/22 05:11:44;;;;;;;4.03;3.15;;;;;;;;;;5076746;28;20032;-45
2022/03/22 05:14:10;;;;;;;4.65;2.83;;;;;;;;;;5070268;28;20035;-45
2022/03/22 05:16:36;;;;;;;3.83;2.38;;;;;;;;;;5084742;28;20505;-48
2022/03/22 05:19:06;;;;;;;3.53;2.40;;;;;;;;;;5090851;28;20457;-54
2022/03/22 05:21:33;;;;;;;4.28;2.75;;;;;;;;;;5091163;28;20036;-45
2022/03/22 05:23:59;;;;;;;3.47;2.58;;;;;;;;;;5091474;28;20499;-46
2022/03/22 05:26:28;;;;;;;4.68;3.15;;;;;;;;;;5073598;28;20032;-47
2022/03/22 05:28:55;;;;;;;3.25;2.83;;;;;;;;;;5071266;28;20029;-45
2022/03/22 05:31:21;;;;;;;4.85;2.65;;;;;;;;;;5070731;28;20024;-43
2022/03/22 05:33:48;;;;;;;4.20;3.30;;;;;;;;;;5074621;28;20038;-50
2022/03/22 05:36:14;;;;;;;5.72;2.72;;;;;;;;;;5073872;28;20477;-44
2022/03/22 05:38:40;;;;;;;2.65;2.42;;;;;;;;;;5065621;28;20027;-45
2022/03/22 05:41:09;;;;;;;3.53;2.55;;;;;;;;;;5093997;28;20040;-46
2022/03/22 05:43:35;;;;;;;5.22;3.65;;;;;;;;;;5093440;28;20044;-44
2022/03/22 05:46:02;;;;;;;3.78;2.85;;;;;;;;;;5074291;28;20032;-55
2022/03/22 05:48:29;;;;;;;3.78;2.78;;;;;;;;;;5074129;28;20025;-44
2022/03/22 05:50:55;;;;;;;4.28;2.85;;;;;;;;;;5074358;28;20036;-47
2022/03/22 05:53:21;;;;;;;4.50;2.92;;;;;;;;;;5073501;28;20040;-45
2022/03/22 05:55:47;;;;;;;3.75;2.58;;;;;;;;;;5085114;28;20021;-44
2022/03/22 05:58:13;;;;;;;3.85;2.80;;;;;;;;;;5093715;28;20116;-44
2022/03/22 06:00:40;;;;;;;4.40;3.15;;;;;;;;;;5094189;28;20031;-44
2022/03/22 06:03:06;;;;;;;3.58;2.67;;;;;;;;;;5093403;28;20048;-45
2022/03/22 06:05:32;;;;;;;5.75;3.53;;;;;;;;;;5085291;28;20025;-44
2022/03/22 06:07:59;;;;;;;3.97;2.90;;;;;;;;;;5073952;28;20024;-44
2022/03/22 06:10:26;;;;;;;4.15;2.85;;;;;;;;;;5073246;28;20020;-44
2022/03/22 06:12:53;;;;;;;3.90;2.83;;;;;;;;;;5073940;28;20017;-44
2022/03/22 06:15:20;;;;;;;7.15;3.55;;;;;;;;;;5081132;28;20096;-45
2022/03/22 06:17:51;;;;;;;11.18;3.10;;;;;;;;;;5094049;28;20193;-47
2022/03/22 06:20:18;;;;;;;4.28;3.15;;;;;;;;;;5075019;28;20072;-44
2022/03/22 06:22:45;;;;;;;6.78;3.13;;;;;;;;;;5056034;28;20117;-44
2022/03/22 06:25:12;;;;;;;4.28;3.13;;;;;;;;;;5079038;28;20024;-42
2022/03/22 06:27:38;;;;;;;4.78;3.22;;;;;;;;;;5093806;28;20027;-44
2022/03/22 06:30:05;;;;;;;6.03;3.53;;;;;;;;;;5093670;28;20338;-54
2022/03/22 06:32:31;;;;;;;3.85;2.75;;;;;;;;;;5070770;28;20051;-44
2022/03/22 06:34:57;;;;;;;5.07;2.80;;;;;;;;;;5075919;28;20021;-43
2022/03/22 06:37:24;;;;;;;6.80;3.50;;;;;;;;;;5092107;28;20492;-43
2022/03/22 06:39:50;;;;;;;4.97;3.22;;;;;;;;;;5093259;28;20054;-45
2022/03/22 06:42:16;;;;;;;4.00;2.75;;;;;;;;;;5091292;28;20040;-43
2022/03/22 06:44:42;;;;;;;4.88;3.42;;;;;;;;;;5082417;28;20020;-42
2022/03/22 06:47:08;;;;;;;5.57;3.55;;;;;;;;;;5092682;28;20050;-46
2022/03/22 06:49:34;;;;;;;4.15;3.08;;;;;;;;;;5093106;28;20106;-44
2022/03/22 06:52:00;;;;;;;7.03;3.25;;;;;;;;;;5075368;28;20108;-43
2022/03/22 06:54:27;;;;;;;8.32;3.17;;;;;;;;;;5072953;28;20019;-43
2022/03/22 06:56:54;;;;;;;5.72;3.03;;;;;;;;;;5093222;28;20031;-43
2022/03/22 06:59:20;;;;;;;7.35;4.05;;;;;;;;;;5092292;28;20035;-43
2022/03/22 07:01:46;;;;;;;8.00;3.53;;;;;;;;;;5074117;28;20040;-43
2022/03/22 07:04:12;;;;;;;8.55;3.40;;;;;;;;;;5071348;28;20028;-57
2022/03/22 07:06:38;;;;;;;5.88;3.00;;;;;;;;;;5059072;28;20046;-46
2022/03/22 07:09:04;;;;;;;6.70;2.90;;;;;;;;;;5094501;28;20031;-42
2022/03/22 07:14:14;;;;;;;4.70;2.83;;;;;;;;;;5091775;28;20504;-43
2022/03/22 07:16:41;;;;;;;5.43;3.15;;;;;;;;;;5074285;28;20063;-46
2022/03/22 07:19:07;;;;;;;5.03;2.70;;;;;;;;;;5091869;28;20096;-55
2022/03/22 07:21:33;;;;;;;4.28;3.30;;;;;;;;;;5092360;28;20081;-43
2022/03/22 07:24:00;;;;;;;9.90;3.28;;;;;;;;;;5090541;28;20079;-47
2022/03/22 07:26:26;;;;;;;5.97;3.92;;;;;;;;;;5086034;28;20497;-42
2022/03/22 07:28:52;;;;;;;4.55;3.50;;;;;;;;;;5072128;28;20024;-44
2022/03/22 07:31:18;;;;;;;7.97;3.40;;;;;;;;;;5071224;28;20428;-43
2022/03/22 07:33:44;;;;;;;4.15;3.00;;;;;;;;;;5071737;28;20029;-43
2022/03/22 07:36:10;;;;;;;7.40;3.60;;;;;;;;;;5090478;28;20028;-46
2022/03/22 07:38:36;;;;;;;5.50;3.35;;;;;;;;;;5091680;28;20024;-44
2022/03/22 07:41:03;;;;;;;5.72;3.30;;;;;;;;;;5088043;28;20299;-45
2022/03/22 07:43:30;;;;;;;17.02;9.68;;;;;;;;;;5070911;28;20033;-44
2022/03/22 07:45:56;;;;;;;14.68;8.98;;;;;;;;;;5081704;28;20044;-44
2022/03/22 07:48:22;;;;;;;14.70;9.07;;;;;;;;;;5070924;28;20575;-48
2022/03/22 07:53:33;;;;;;;14.18;9.05;;;;;;;;;;5075835;28;20044;-43
2022/03/22 07:55:59;;;;;;;12.30;7.95;;;;;;;;;;5071800;28;20457;-42
2022/03/22 07:58:25;;;;;;;13.05;8.20;;;;;;;;;;5072537;28;20137;-43
2022/03/22 08:00:52;;;;;;;12.48;7.55;;;;;;;;;;5071406;28;20529;-43
2022/03/22 08:03:18;;;;;;;12.77;7.47;;;;;;;;;;5086590;28;20036;-43
2022/03/22 08:05:48;;;;;;;10.73;7.15;;;;;;;;;;5088364;28;20370;-43
2022/03/22 08:08:14;;;;;;;11.55;7.43;;;;;;;;;;5062334;28;20462;-43
2022/03/22 08:10:42;;;;;;;8.68;6.07;;;;;;;;;;5071657;28;20036;-44
2022/03/22 08:13:09;;;;;;;9.80;6.28;;;;;;;;;;5071101;28;20079;-56
2022/03/22 08:15:35;;;;;;;9.27;6.35;;;;;;;;;;5071205;28;20048;-46
2022/03/22 08:18:01;;;;;;;9.80;6.20;;;;;;;;;;5071736;28;20028;-44
2022/03/22 08:20:28;;;;;;;9.45;6.82;;;;;;;;;;5084527;28;20032;-43
2022/03/22 08:22:54;;;;;;;8.55;6.35;;;;;;;;;;5091883;28;20036;-43
2022/03/22 08:25:24;;;;;;;7.75;5.35;;;;;;;;;;5090662;28;20024;-46
2022/03/22 08:27:54;;;;;;;7.40;4.88;;;;;;;;;;5087796;28;20106;-44
2022/03/22 08:30:21;;;;;;;7.45;5.00;;;;;;;;;;5090930;28;20403;-43
2022/03/22 08:32:48;;;;;;;8.27;5.53;;;;;;;;;;5085114;28;20428;-43
2022/03/22 08:35:14;;;;;;;9.10;5.38;;;;;;;;;;5091514;28;20016;-44
2022/03/22 08:37:40;;;;;;;6.82;4.78;;;;;;;;;;5072469;28;20033;-43
2022/03/22 08:40:06;;;;;;;8.00;5.28;;;;;;;;;;5076963;28;20036;-44
2022/03/22 08:42:32;;;;;;;7.82;5.28;;;;;;;;;;5090764;28;20039;-44
2022/03/22 08:44:59;;;;;;;7.82;4.88;;;;;;;;;;5078802;28;20056;-46
2022/03/22 08:47:26;;;;;;;6.70;5.25;;;;;;;;;;5089038;28;20046;-43
2022/03/22 08:49:52;;;;;;;6.68;4.75;;;;;;;;;;5091363;28;20054;-43
2022/03/22 08:52:18;;;;;;;6.43;4.72;;;;;;;;;;5090850;28;20020;-44
2022/03/22 08:54:45;;;;;;;5.75;4.40;;;;;;;;;;5091287;28;20381;-43
2022/03/22 08:57:11;;;;;;;6.78;4.55;;;;;;;;;;5073726;28;20082;-57
2022/03/22 08:59:37;;;;;;;8.25;4.90;;;;;;;;;;5071090;28;20025;-44
2022/03/22 09:02:03;;;;;;;6.00;4.25;;;;;;;;;;5071381;28;20028;-43
2022/03/22 09:07:14;;;;;;;6.53;3.97;;;;;;;;;;5091703;28;20038;-49
2022/03/22 09:09:40;;;;;;;9.45;4.25;;;;;;;;;;5081038;28;20100;-44
2022/03/22 09:12:06;;;;;;;6.50;4.43;;;;;;;;;;5076922;28;20032;-42
2022/03/22 09:14:32;;;;;;;4.80;3.90;;;;;;;;;;5074829;28;20021;-43
2022/03/22 09:16:58;;;;;;;6.60;4.40;;;;;;;;;;5075647;28;20063;-44
2022/03/22 09:19:24;;;;;;;6.50;4.28;;;;;;;;;;5074498;28;20063;-44
2022/03/22 09:21:50;;;;;;;6.97;4.93;;;;;;;;;;5074832;28;20024;-43
2022/03/22 09:24:16;;;;;;;7.65;4.65;;;;;;;;;;5074542;28;20063;-45
2022/03/22 09:26:42;;;;;;;6.28;3.83;;;;;;;;;;5074741;28;20067;-43
2022/03/22 09:29:08;;;;;;;5.00;3.75;;;;;;;;;;5074652;28;20548;-44
2022/03/22 09:31:34;;;;;;;5.97;4.72;;;;;;;;;;5073737;28;20122;-45
2022/03/22 09:34:00;;;;;;;6.97;4.78;;;;;;;;;;5074450;28;20505;-43
2022/03/22 09:36:26;;;;;;;6.70;4.18;;;;;;;;;;5069338;28;20499;-43
2022/03/22 09:38:52;;;;;;;5.32;3.85;;;;;;;;;;5077349;28;20058;-50
2022/03/22 09:41:19;;;;;;;6.07;4.10;;;;;;;;;;5073541;28;20028;-50
2022/03/22 09:43:47;;;;;;;5.20;3.47;;;;;;;;;;5076353;28;20037;-45
2022/03/22 09:46:14;;;;;;;5.60;3.70;;;;;;;;;;5086420;28;20024;-55
2022/03/22 09:48:40;;;;;;;5.95;4.25;;;;;;;;;;5094543;28;20027;-48
2022/03/22 09:53:53;;;;;;;7.18;4.07;;;;;;;;;;5091643;28;20058;-43
2022/03/22 09:56:20;;;;;;;5.43;3.78;;;;;;;;;;5079258;28;20477;-43
2022/03/22 09:58:47;;;;;;;7.00;4.13;;;;;;;;;;5094184;28;20470;-43
2022/03/22 10:01:13;;;;;;;6.05;4.68;;;;;;;;;;5088993;28;20038;-57
2022/03/22 10:03:39;;;;;;;8.27;4.57;;;;;;;;;;5092367;28;20119;-44
2022/03/22 10:06:07;;;;;;;5.38;3.70;;;;;;;;;;5093398;28;20035;-43
2022/03/22 10:08:36;;;;;;;7.25;4.30;;;;;;;;;;5093203;28;20032;-43
2022/03/22 10:11:02;;;;;;;6.90;4.30;;;;;;;;;;5093679;28;20036;-46
2022/03/22 10:13:29;;;;;;;6.28;3.95;;;;;;;;;;5076733;28;20028;-44
2022/03/22 10:16:05;;;;;;;5.50;4.18;;;;;;;;;;5073723;28;20063;-43
2022/03/22 10:18:34;;;;;;;6.15;4.53;;;;;;;;;;5073440;28;20040;-45
2022/03/22 10:21:01;;;;;;;6.15;3.95;;;;;;;;;;5092399;28;20020;-44
2022/03/22 10:23:28;;;;;;;6.28;4.00;;;;;;;;;;5093015;28;20410;-43
2022/03/22 10:26:07;;;;;;;7.80;4.13;;;;;;;;;;5093713;28;20024;-44
2022/03/22 10:28:34;;;;;;;7.75;4.70;;;;;;;;;;5092977;28;20024;-43
2022/03/22 10:31:00;;;;;;;5.80;3.95;;;;;;;;;;5077070;28;20032;-43
2022/03/22 10:33:26;;;;;;;5.75;4.38;;;;;;;;;;5072768;28;20033;-43
2022/03/22 10:35:52;;;;;;;6.65;4.10;;;;;;;;;;5088782;28;20067;-43
2022/03/22 10:38:19;;;;;;;6.03;4.10;;;;;;;;;;5076286;28;20025;-43
2022/03/22 10:40:47;;;;;;;7.47;4.60;;;;;;;;;;5084630;28;20138;-53
2022/03/22 10:43:15;;;;;;;5.97;3.78;;;;;;;;;;5093086;28;20027;-57
2022/03/22 10:45:43;;;;;;;4.63;3.55;;;;;;;;;;5084938;28;20032;-43
2022/03/22 10:48:09;;;;;;;6.57;4.22;;;;;;;;;;5093128;28;20376;-43
2022/03/22 10:50:38;;;;;;;6.20;4.05;;;;;;;;;;5091374;28;20090;-43
2022/03/22 10:53:05;;;;;;;5.18;3.70;;;;;;;;;;5072597;28;20069;-44
2022/03/22 10:55:31;;;;;;;6.07;3.95;;;;;;;;;;5090573;28;20034;-43
2022/03/22 10:57:58;;;;;;;7.53;4.13;;;;;;;;;;5092987;28;20058;-43
2022/03/22 11:00:25;;;;;;;6.47;4.55;;;;;;;;;;5074398;28;20029;-48
2022/03/22 11:02:52;;;;;;;7.10;3.83;;;;;;;;;;5072810;28;20032;-44
2022/03/22 11:05:19;;;;;;;5.15;3.63;;;;;;;;;;5080339;28;20016;-44
2022/03/22 11:07:46;;;;;;;5.68;3.35;;;;;;;;;;5075649;28;20039;-43
2022/03/22 11:10:12;;;;;;;4.72;3.63;;;;;;;;;;5072784;28;20123;-45
2022/03/22 11:12:38;;;;;;;6.10;4.35;;;;;;;;;;5072229;28;20035;-43
2022/03/22 11:15:05;;;;;;;7.22;4.53;;;;;;;;;;5072956;28;20351;-44
2022/03/22 11:17:35;;;;;;;5.82;3.40;;;;;;;;;;5084650;28;20068;-44
2022/03/22 11:20:06;;;;;;;5.78;3.80;;;;;;;;;;5074060;28;20471;-46
2022/03/22 11:22:32;;;;;;;5.05;3.40;;;;;;;;;;5072815;28;20040;-44
2022/03/22 11:25:11;;;;;;;4.90;3.50;;;;;;;;;;5072036;28;20032;-45
2022/03/22 11:27:38;;;;;;;5.43;4.00;;;;;;;;;;5071603;28;20032;-44
2022/03/22 11:30:05;;;;;;;9.35;3.90;;;;;;;;;;5089565;28;20062;-45
2022/03/22 11:35:25;;;;;;;6.13;3.60;;;;;;;;;;5091289;28;20031;-46
2022/03/22 11:37:51;;;;;;;;;;;;;;;;;;5093056;28;20016;-44
2022/03/22 11:43:09;;;;;;;6.10;3.67;;;;;;;;;;5092077;28;20077;-50
2022/03/22 11:45:45;;;;;;;10.27;4.30;;;;;;;;;;5073857;28;20029;-44
2022/03/22 11:48:11;;;;;;;7.22;4.35;;;;;;;;;;5072894;28;20535;-45
2022/03/22 11:50:37;;;;;;;6.68;3.47;;;;;;;;;;5091480;28;20028;-45
2022/03/22 11:53:03;;;;;;;6.10;3.97;;;;;;;;;;5074018;28;20020;-44
2022/03/22 11:55:29;;;;;;;7.68;3.67;;;;;;;;;;5071504;28;20024;-44
2022/03/22 11:58:03;;;;;;;8.27;3.92;;;;;;;;;;5071860;28;20028;-43
2022/03/22 12:00:42;;;;;;;9.05;3.83;;;;;;;;;;5070938;28;20052;-45
2022/03/22 12:03:12;;;;;;;6.97;3.47;;;;;;;;;;5072060;28;20493;-48
2022/03/22 12:05:38;;;;;;;10.43;3.60;;;;;;;;;;5091062;28;20031;-43
2022/03/22 12:08:07;;;;;;;4.25;3.45;;;;;;;;;;5091021;28;20028;-50
2022/03/22 12:10:33;;;;;;;3.95;3.28;;;;;;;;;;5070492;28;20559;-44
2022/03/22 12:12:59;;;;;;;5.07;3.35;;;;;;;;;;5071370;28;20033;-45
2022/03/22 12:15:25;;;;;;;5.35;3.58;;;;;;;;;;5089129;28;20089;-44
2022/03/22 12:17:52;;;;;;;5.53;3.70;;;;;;;;;;5091222;28;20124;-46
2022/03/22 12:20:22;;;;;;;7.18;3.10;;;;;;;;;;5074812;28;20118;-57
2022/03/22 12:22:49;;;;;;;7.03;3.50;;;;;;;;;;5091648;28;20036;-44
2022/03/22 12:25:19;;;;;;;6.22;3.90;;;;;;;;;;5091551;28;20028;-43
2022/03/22 12:27:51;;;;;;;5.28;3.03;;;;;;;;;;5085144;28;20033;-43
2022/03/22 12:30:17;;;;;;;4.63;3.37;;;;;;;;;;5079751;28;20099;-57
2022/03/22 12:32:43;;;;;;;5.20;3.50;;;;;;;;;;5091176;28;20016;-43
2022/03/22 12:35:12;;;;;;;6.15;3.25;;;;;;;;;;5085744;28;20065;-43
2022/03/22 12:37:38;;;;;;;5.13;3.38;;;;;;;;;;5088902;28;20020;-43
2022/03/22 12:40:05;;;;;;;5.72;3.90;;;;;;;;;;5087546;28;20032;-43
2022/03/22 12:42:31;;;;;;;6.38;3.80;;;;;;;;;;5093663;28;20063;-43
2022/03/22 12:44:58;;;;;;;5.07;3.50;;;;;;;;;;5091213;28;20028;-43
2022/03/22 12:47:24;;;;;;;5.47;3.13;;;;;;;;;;5076282;28;20025;-43
2022/03/22 12:49:50;;;;;;;4.45;3.00;;;;;;;;;;5076378;28;20132;-43
2022/03/22 12:52:16;;;;;;;4.07;2.83;;;;;;;;;;5093827;28;20103;-43
2022/03/22 12:54:43;;;;;;;4.68;3.05;;;;;;;;;;5091404;28;20103;-43
2022/03/22 12:57:10;;;;;;;5.43;2.75;;;;;;;;;;5095251;28;20031;-43
2022/03/22 12:59:37;;;;;;;5.78;3.58;;;;;;;;;;5081614;28;20025;-43
2022/03/22 13:02:06;;;;;;;5.75;3.15;;;;;;;;;;5089532;28;20055;-43
2022/03/22 13:04:35;;;;;;;4.78;2.70;;;;;;;;;;5092530;28;20027;-43
2022/03/22 13:07:02;;;;;;;8.00;3.65;;;;;;;;;;5095016;28;20158;-43
2022/03/22 13:12:15;;;;;;;5.30;3.25;;;;;;;;;;5079882;28;20393;-48
2022/03/22 13:17:30;;;;;;;5.53;3.80;;;;;;;;;;5073733;28;20118;-44
2022/03/22 13:19:59;;;;;;;3.88;2.65;;;;;;;;;;5074710;28;20427;-43
2022/03/22 13:22:26;;;;;;;5.15;3.25;;;;;;;;;;5090355;28;20028;-44
2022/03/22 13:25:04;;;;;;;4.60;2.97;;;;;;;;;;5094449;28;20476;-43
2022/03/22 13:27:30;;;;;;;4.07;3.15;;;;;;;;;;5094026;28;20024;-43
2022/03/22 13:29:56;;;;;;;4.20;3.10;;;;;;;;;;5077072;28;20066;-43
2022/03/22 13:32:29;;;;;;;5.88;3.10;;;;;;;;;;5089402;28;20073;-56
2022/03/22 13:35:03;;;;;;;5.40;3.10;;;;;;;;;;5090757;28;20024;-43
2022/03/22 13:37:29;;;;;;;4.72;3.00;;;;;;;;;;5093487;28;20035;-43
2022/03/22 13:40:05;;;;;;;4.78;3.08;;;;;;;;;;5094598;28;20031;-43
2022/03/22 13:42:30;;;;;;;4.53;2.75;;;;;;;;;;5092989;28;20028;-46
2022/03/22 13:44:57;;;;;;;6.65;3.40;;;;;;;;;;5085977;28;20032;-44
2022/03/22 13:47:26;;;;;;;6.03;4.10;;;;;;;;;;5093875;28;20028;-57
2022/03/22 13:49:52;;;;;;;5.25;3.20;;;;;;;;;;5082278;28;20017;-44
2022/03/22 13:52:25;;;;;;;3.92;2.83;;;;;;;;;;5075785;28;20100;-43
2022/03/22 13:54:55;;;;;;;4.50;3.00;;;;;;;;;;5080304;28;20036;-44
2022/03/22 13:57:28;;;;;;;4.07;2.80;;;;;;;;;;5080379;28;20066;-57
2022/03/22 13:59:58;;;;;;;5.80;3.25;;;;;;;;;;5093462;28;20169;-43
2022/03/22 14:02:24;;;;;;;5.25;3.13;;;;;;;;;;5092980;28;20092;-53
2022/03/22 14:04:50;;;;;;;6.10;3.40;;;;;;;;;;5086292;28;20024;-43
2022/03/22 14:07:16;;;;;;;5.80;3.10;;;;;;;;;;5094287;28;20089;-44
2022/03/22 14:09:42;;;;;;;4.85;3.03;;;;;;;;;;5092437;28;20032;-43
2022/03/22 14:12:08;;;;;;;4.43;3.17;;;;;;;;;;5093871;28;20105;-43
2022/03/22 14:14:34;;;;;;;3.40;2.67;;;;;;;;;;5085084;28;20107;-44
2022/03/22 14:17:00;;;;;;;4.50;3.22;;;;;;;;;;5092151;28;20119;-43
2022/03/22 14:19:26;;;;;;;5.18;2.97;;;;;;;;;;5081163;28;20028;-43
2022/03/22 14:21:52;;;;;;;3.50;2.83;;;;;;;;;;5079515;28;20103;-44
2022/03/22 14:24:18;;;;;;;5.53;3.10;;;;;;;;;;5075871;28;20354;-43
2022/03/22 14:26:44;;;;;;;3.85;2.67;;;;;;;;;;5087446;28;20032;-43
2022/03/22 14:29:10;;;;;;;4.43;3.05;;;;;;;;;;5073423;28;20028;-45
2022/03/22 14:31:36;;;;;;;5.60;3.00;;;;;;;;;;5074353;28;20055;-43
2022/03/22 14:34:02;;;;;;;6.22;2.53;;;;;;;;;;5075505;28;20036;-44
2022/03/22 14:36:28;;;;;;;4.68;2.95;;;;;;;;;;5081059;28;20031;-43
2022/03/22 14:38:54;;;;;;;3.92;3.33;;;;;;;;;;5073409;28;20059;-44
2022/03/22 14:41:27;;;;;;;4.63;3.05;;;;;;;;;;5073559;28;20040;-43
2022/03/22 14:43:57;;;;;;;4.47;2.70;;;;;;;;;;5076622;28;20064;-43
2022/03/22 14:46:23;;;;;;;4.32;2.50;;;;;;;;;;5085316;28;20035;-56
2022/03/22 14:48:50;;;;;;;6.43;3.88;;;;;;;;;;5072820;28;20075;-43
2022/03/22 14:54:02;;;;;;;4.70;3.03;;;;;;;;;;5077975;28;20497;-43
2022/03/22 14:54:10;;;;;;;3.65;2.35;;;;;;;;;;5072546;28;20041;-43
2022/03/22 14:59:23;;;;;;;4.03;3.00;;;;;;;;;;5072274;28;20082;-57
2022/03/22 15:01:49;;;;;;;5.10;2.83;;;;;;;;;;5083200;28;20032;-46
2022/03/22 15:04:15;;;;;;;3.45;2.65;;;;;;;;;;5079479;28;20032;-45
2022/03/22 15:06:43;;;;;;;3.67;2.40;;;;;;;;;;5082623;28;20025;-44
2022/03/22 15:09:12;;;;;;;4.25;2.65;;;;;;;;;;5091180;28;20505;-46
2022/03/22 15:11:39;;;;;;;3.13;2.45;;;;;;;;;;5082139;28;20078;-43
2022/03/22 15:14:08;;;;;;;5.35;3.22;;;;;;;;;;5089189;28;20028;-44
2022/03/22 15:16:34;;;;;;;5.93;2.60;;;;;;;;;;5084962;28;20105;-43
2022/03/22 15:19:01;;;;;;;4.70;3.00;;;;;;;;;;5077057;28;20108;-43
2022/03/22 15:21:27;;;;;;;5.50;3.30;;;;;;;;;;5071778;28;20029;-56
2022/03/22 15:23:53;;;;;;;4.25;2.80;;;;;;;;;;5079347;28;20052;-44
2022/03/22 15:26:19;;;;;;;4.07;2.97;;;;;;;;;;5085937;28;20106;-45